Time;durP1;ratioP1;P1;durP2;ratioP2;P2;SDS_P1;SDS_P2;PMS_P1;PMS_P2;Temp;Humidity;BMP_temperature;BMP_pressure;BME280_temperature;BME280_humidity;BME280_pressure;Samples;Min_cycle;Max_cycle;Signal;HPM_P1;HPM_P2
2021/10/11 00:02:24;;;;;;;6.13;1.80;;;;;;;;;;5008523;28;20560;-79
2021/10/11 00:04:49;;;;;;;7.57;2.07;;;;;;;;;;5002275;28;20179;-78
2021/10/11 00:07:16;;;;;;;6.07;1.60;;;;;;;;;;5002722;28;20654;-78
2021/10/11 00:09:42;;;;;;;7.30;2.17;;;;;;;;;;5001689;28;20200;-78
2021/10/11 00:12:07;;;;;;;8.43;1.60;;;;;;;;;;5003436;28;20460;-78
2021/10/11 00:14:32;;;;;;;4.30;1.67;;;;;;;;;;5002465;28;20208;-78
2021/10/11 00:16:57;;;;;;;4.57;1.67;;;;;;;;;;5002403;28;20242;-78
2021/10/11 00:19:23;;;;;;;8.60;2.00;;;;;;;;;;5001660;28;20170;-79
2021/10/11 00:21:48;;;;;;;5.77;1.70;;;;;;;;;;5001965;28;20185;-78
2021/10/11 00:24:13;;;;;;;6.60;1.87;;;;;;;;;;5001839;28;20219;-78
2021/10/11 00:26:39;;;;;;;5.77;1.87;;;;;;;;;;5000800;28;20267;-78
2021/10/11 00:29:04;;;;;;;5.60;1.60;;;;;;;;;;5001897;28;20225;-78
2021/10/11 00:31:30;;;;;;;6.70;1.87;;;;;;;;;;5001720;28;20622;-78
2021/10/11 00:33:56;;;;;;;6.40;1.87;;;;;;;;;;5004547;28;20585;-78
2021/10/11 00:36:22;;;;;;;8.67;1.93;;;;;;;;;;5002194;28;20193;-79
2021/10/11 00:38:47;;;;;;;7.30;1.60;;;;;;;;;;5003431;28;20439;-78
2021/10/11 00:41:12;;;;;;;8.40;1.83;;;;;;;;;;5000277;28;20185;-78
2021/10/11 00:43:39;;;;;;;6.07;1.70;;;;;;;;;;5003143;28;20201;-78
2021/10/11 00:46:04;;;;;;;6.37;1.87;;;;;;;;;;5002297;28;20193;-78
2021/10/11 00:48:29;;;;;;;7.90;1.90;;;;;;;;;;5000867;28;20903;-79
2021/10/11 00:50:54;;;;;;;4.23;1.80;;;;;;;;;;5002464;28;20261;-78
2021/10/11 00:53:20;;;;;;;8.43;2.00;;;;;;;;;;5002057;28;21810;-78
2021/10/11 00:55:45;;;;;;;7.13;2.03;;;;;;;;;;5002418;28;20186;-79
2021/10/11 00:58:10;;;;;;;7.47;1.93;;;;;;;;;;5002077;28;20185;-78
2021/10/11 01:00:36;;;;;;;4.37;1.80;;;;;;;;;;5001111;28;20336;-78
2021/10/11 01:03:01;;;;;;;4.90;1.47;;;;;;;;;;5002935;28;20876;-78
2021/10/11 01:05:26;;;;;;;5.40;1.50;;;;;;;;;;5001557;28;20174;-78
2021/10/11 01:07:52;;;;;;;3.70;1.30;;;;;;;;;;5001727;28;20539;-79
2021/10/11 01:10:17;;;;;;;6.50;1.87;;;;;;;;;;5002264;28;20198;-78
2021/10/11 01:12:42;;;;;;;6.90;1.80;;;;;;;;;;5000518;28;21075;-78
2021/10/11 01:15:07;;;;;;;5.43;1.60;;;;;;;;;;5003233;28;20244;-79
2021/10/11 01:17:33;;;;;;;5.80;1.97;;;;;;;;;;5004500;28;20173;-78
2021/10/11 01:19:58;;;;;;;5.23;1.83;;;;;;;;;;4999868;28;20196;-79
2021/10/11 01:22:37;;;;;;;12.03;2.27;;;;;;;;;;5003039;28;20213;-78
2021/10/11 01:25:04;;;;;;;7.57;1.50;;;;;;;;;;5000910;28;20178;-78
2021/10/11 01:27:29;;;;;;;8.97;1.60;;;;;;;;;;5001865;28;20432;-78
2021/10/11 01:29:55;;;;;;;8.33;1.87;;;;;;;;;;5000600;28;20467;-78
2021/10/11 01:32:21;;;;;;;4.23;1.50;;;;;;;;;;5001806;28;20223;-78
2021/10/11 01:34:46;;;;;;;6.67;1.77;;;;;;;;;;5001515;28;20432;-78
2021/10/11 01:37:11;;;;;;;6.33;2.00;;;;;;;;;;5002423;28;20188;-78
2021/10/11 01:39:36;;;;;;;9.10;1.73;;;;;;;;;;5002663;28;20279;-78
2021/10/11 01:42:02;;;;;;;7.93;1.80;;;;;;;;;;5002828;28;20178;-77
2021/10/11 01:44:27;;;;;;;7.83;2.13;;;;;;;;;;5003484;28;20186;-78
2021/10/11 01:46:52;;;;;;;7.33;1.70;;;;;;;;;;4999213;28;20216;-78
2021/10/11 01:49:17;;;;;;;7.30;1.70;;;;;;;;;;5000983;28;20638;-78
2021/10/11 01:51:43;;;;;;;5.53;1.80;;;;;;;;;;5001836;28;20208;-78
2021/10/11 01:54:08;;;;;;;7.80;2.10;;;;;;;;;;5002733;28;20197;-78
2021/10/11 01:56:33;;;;;;;6.13;1.57;;;;;;;;;;5001810;28;20177;-78
2021/10/11 01:58:59;;;;;;;11.43;1.97;;;;;;;;;;5001436;28;20570;-78
2021/10/11 02:01:24;;;;;;;9.23;1.63;;;;;;;;;;5002685;28;20181;-78
2021/10/11 02:03:49;;;;;;;14.63;2.70;;;;;;;;;;4999819;28;20737;-78
2021/10/11 02:06:15;;;;;;;7.57;2.00;;;;;;;;;;5000601;28;20170;-79
2021/10/11 02:08:40;;;;;;;8.23;2.33;;;;;;;;;;4998785;28;20635;-78
2021/10/11 02:11:05;;;;;;;7.93;1.97;;;;;;;;;;5000368;28;20177;-78
2021/10/11 02:13:30;;;;;;;7.73;1.93;;;;;;;;;;5001663;28;20209;-78
2021/10/11 02:15:56;;;;;;;6.37;1.97;;;;;;;;;;4999726;28;20188;-78
2021/10/11 02:18:21;;;;;;;6.70;1.80;;;;;;;;;;5001022;28;20631;-78
2021/10/11 02:20:46;;;;;;;6.13;1.60;;;;;;;;;;4999940;28;20679;-78
2021/10/11 02:23:12;;;;;;;13.40;2.53;;;;;;;;;;4998561;28;20216;-78
2021/10/11 02:25:37;;;;;;;7.73;2.07;;;;;;;;;;5000922;28;20190;-78
2021/10/11 02:28:02;;;;;;;8.60;2.00;;;;;;;;;;5000232;28;20178;-78
2021/10/11 02:30:27;;;;;;;9.83;1.83;;;;;;;;;;5000443;28;20177;-78
2021/10/11 02:32:53;;;;;;;10.20;2.00;;;;;;;;;;4999145;28;20839;-78
2021/10/11 02:35:20;;;;;;;9.27;2.13;;;;;;;;;;5001067;28;20350;-79
2021/10/11 02:37:46;;;;;;;8.33;1.57;;;;;;;;;;4999908;28;20188;-78
2021/10/11 02:40:11;;;;;;;6.63;1.50;;;;;;;;;;5000215;28;20436;-78
2021/10/11 02:42:36;;;;;;;9.43;2.30;;;;;;;;;;5000210;28;20342;-78
2021/10/11 02:45:02;;;;;;;11.67;1.97;;;;;;;;;;5000638;28;20200;-79
2021/10/11 02:47:27;;;;;;;7.00;2.27;;;;;;;;;;4999690;28;20188;-78
2021/10/11 02:49:53;;;;;;;9.43;2.57;;;;;;;;;;4999958;28;20432;-78
2021/10/11 02:52:18;;;;;;;6.40;2.03;;;;;;;;;;4999098;28;20206;-78
2021/10/11 02:54:43;;;;;;;9.27;1.93;;;;;;;;;;4998620;28;20637;-78
2021/10/11 02:57:09;;;;;;;9.30;2.60;;;;;;;;;;4999902;28;20775;-77
2021/10/11 02:59:34;;;;;;;7.17;1.97;;;;;;;;;;4999938;28;20736;-78
2021/10/11 03:01:59;;;;;;;3.97;1.30;;;;;;;;;;5000210;28;20169;-78
2021/10/11 03:04:24;;;;;;;7.67;1.97;;;;;;;;;;5002716;28;20185;-78
2021/10/11 03:06:50;;;;;;;9.17;2.20;;;;;;;;;;4999892;28;20232;-78
2021/10/11 03:09:15;;;;;;;7.50;1.70;;;;;;;;;;5001691;28;20910;-78
2021/10/11 03:11:40;;;;;;;6.50;1.70;;;;;;;;;;5002513;28;20209;-78
2021/10/11 03:14:05;;;;;;;5.07;1.63;;;;;;;;;;5002228;28;20219;-78
2021/10/11 03:16:32;;;;;;;5.23;1.77;;;;;;;;;;5004172;28;20212;-78
2021/10/11 03:18:57;;;;;;;5.50;1.67;;;;;;;;;;5004018;28;20181;-78
2021/10/11 03:21:23;;;;;;;7.07;1.47;;;;;;;;;;5004397;28;20436;-78
2021/10/11 03:23:49;;;;;;;6.67;2.17;;;;;;;;;;5003823;28;20960;-78
2021/10/11 03:26:15;;;;;;;11.73;2.77;;;;;;;;;;5004533;28;20649;-78
2021/10/11 03:28:41;;;;;;;5.93;1.67;;;;;;;;;;5003812;28;20436;-78
2021/10/11 03:31:06;;;;;;;8.00;1.97;;;;;;;;;;5001454;28;21158;-78
2021/10/11 03:33:31;;;;;;;9.07;1.70;;;;;;;;;;5001279;28;20235;-78
2021/10/11 03:35:57;;;;;;;8.83;2.13;;;;;;;;;;5004982;28;20185;-78
2021/10/11 03:38:22;;;;;;;6.47;1.97;;;;;;;;;;5003733;28;20205;-78
2021/10/11 03:40:47;;;;;;;7.87;2.03;;;;;;;;;;5008399;28;20181;-78
2021/10/11 03:43:12;;;;;;;7.00;2.40;;;;;;;;;;5004652;28;20251;-78
2021/10/11 03:45:38;;;;;;;5.77;2.20;;;;;;;;;;5004192;28;20189;-78
2021/10/11 03:48:03;;;;;;;8.70;2.20;;;;;;;;;;5003624;28;20633;-78
2021/10/11 03:50:28;;;;;;;7.83;2.03;;;;;;;;;;5004178;28;20681;-78
2021/10/11 03:52:54;;;;;;;4.73;1.87;;;;;;;;;;5005561;28;20206;-78
2021/10/11 03:55:19;;;;;;;4.87;2.10;;;;;;;;;;5003678;28;20276;-79
2021/10/11 03:57:44;;;;;;;13.13;2.60;;;;;;;;;;5004195;28;20580;-78
2021/10/11 04:00:10;;;;;;;10.03;2.10;;;;;;;;;;5004621;28;20182;-78
2021/10/11 04:02:35;;;;;;;3.23;1.40;;;;;;;;;;5005999;28;20232;-78
2021/10/11 04:05:00;;;;;;;4.63;1.60;;;;;;;;;;5004364;28;20173;-78
2021/10/11 04:07:26;;;;;;;7.43;1.63;;;;;;;;;;5005216;28;20634;-78
2021/10/11 04:09:51;;;;;;;3.73;1.67;;;;;;;;;;5006149;28;20292;-78
2021/10/11 04:12:21;;;;;;;7.40;1.50;;;;;;;;;;5001844;28;20277;-78
2021/10/11 04:14:46;;;;;;;16.87;1.97;;;;;;;;;;5002787;28;20646;-78
2021/10/11 04:17:12;;;;;;;7.37;1.83;;;;;;;;;;5004469;28;20488;-78
2021/10/11 04:19:37;;;;;;;5.80;1.40;;;;;;;;;;5003133;28;20205;-78
2021/10/11 04:22:03;;;;;;;8.40;2.23;;;;;;;;;;5003852;28;20559;-77
2021/10/11 04:24:28;;;;;;;7.13;2.17;;;;;;;;;;5001910;28;20189;-78
2021/10/11 04:26:53;;;;;;;9.80;3.03;;;;;;;;;;5008981;28;20236;-78
2021/10/11 04:29:18;;;;;;;11.47;1.93;;;;;;;;;;5003618;28;20181;-78
2021/10/11 04:31:43;;;;;;;13.83;2.50;;;;;;;;;;5003467;28;20181;-79
2021/10/11 04:34:09;;;;;;;6.17;1.77;;;;;;;;;;5005433;28;20704;-79
2021/10/11 04:36:34;;;;;;;5.13;1.83;;;;;;;;;;5002216;28;20611;-78
2021/10/11 04:38:59;;;;;;;8.97;2.10;;;;;;;;;;5004232;28;20181;-78
2021/10/11 04:41:25;;;;;;;8.40;2.57;;;;;;;;;;5004490;28;20185;-78
2021/10/11 04:43:50;;;;;;;7.77;1.80;;;;;;;;;;5002792;28;20267;-78
2021/10/11 04:46:15;;;;;;;11.90;2.10;;;;;;;;;;5002646;28;20205;-79
2021/10/11 04:48:41;;;;;;;8.60;2.17;;;;;;;;;;5001258;28;20192;-78
2021/10/11 04:51:06;;;;;;;10.20;1.90;;;;;;;;;;5002639;28;20268;-78
2021/10/11 04:53:31;;;;;;;8.07;1.90;;;;;;;;;;5001819;28;20216;-78
2021/10/11 04:55:56;;;;;;;8.07;2.00;;;;;;;;;;5001467;28;20348;-78
2021/10/11 04:58:22;;;;;;;3.60;1.23;;;;;;;;;;5001848;28;20229;-78
2021/10/11 05:00:47;;;;;;;4.53;1.73;;;;;;;;;;5001863;28;20712;-78
2021/10/11 05:03:12;;;;;;;8.50;2.13;;;;;;;;;;5003873;28;20693;-78
2021/10/11 05:05:38;;;;;;;7.10;2.07;;;;;;;;;;5002198;28;20708;-79
2021/10/11 05:08:05;;;;;;;5.90;1.93;;;;;;;;;;5003452;28;20189;-78
2021/10/11 05:10:30;;;;;;;5.00;1.90;;;;;;;;;;5004476;28;20443;-78
2021/10/11 05:12:55;;;;;;;10.50;2.43;;;;;;;;;;5004308;28;20555;-78
2021/10/11 05:15:21;;;;;;;10.93;2.20;;;;;;;;;;5004210;28;20177;-78
2021/10/11 05:17:46;;;;;;;5.70;2.13;;;;;;;;;;5001105;28;20696;-78
2021/10/11 05:20:11;;;;;;;5.13;1.97;;;;;;;;;;5000868;28;20177;-78
2021/10/11 05:22:37;;;;;;;6.90;1.90;;;;;;;;;;5002872;28;20201;-78
2021/10/11 05:25:03;;;;;;;9.00;2.20;;;;;;;;;;5001513;28;20669;-78
2021/10/11 05:27:29;;;;;;;10.50;2.87;;;;;;;;;;5000990;28;20288;-78
2021/10/11 05:29:54;;;;;;;11.90;2.23;;;;;;;;;;5002808;28;21160;-78
2021/10/11 05:32:19;;;;;;;8.37;2.07;;;;;;;;;;5002687;28;20232;-77
2021/10/11 05:34:44;;;;;;;2.47;1.50;;;;;;;;;;5001584;28;20181;-77
2021/10/11 05:37:10;;;;;;;12.07;2.23;;;;;;;;;;4997859;28;20227;-78
2021/10/11 05:39:35;;;;;;;6.60;2.30;;;;;;;;;;4998900;28;20177;-78
2021/10/11 05:42:00;;;;;;;9.37;2.33;;;;;;;;;;5000006;28;20268;-78
2021/10/11 05:44:28;;;;;;;11.80;2.67;;;;;;;;;;4996379;28;20192;-78
2021/10/11 05:46:55;;;;;;;10.20;2.73;;;;;;;;;;4997648;28;20177;-78
2021/10/11 05:49:22;;;;;;;5.70;1.63;;;;;;;;;;4996102;28;20847;-78
2021/10/11 05:51:47;;;;;;;6.60;1.90;;;;;;;;;;5000742;28;20444;-77
2021/10/11 05:54:12;;;;;;;5.13;2.00;;;;;;;;;;5000427;28;20451;-78
2021/10/11 05:56:38;;;;;;;7.23;1.63;;;;;;;;;;4994603;28;20319;-78
2021/10/11 05:59:03;;;;;;;9.73;2.23;;;;;;;;;;5001121;28;20185;-78
2021/10/11 06:01:28;;;;;;;8.57;2.10;;;;;;;;;;4998542;28;20177;-78
2021/10/11 06:03:53;;;;;;;8.83;2.87;;;;;;;;;;5001718;28;20215;-78
2021/10/11 06:06:18;;;;;;;6.77;2.27;;;;;;;;;;4999806;28;20189;-78
2021/10/11 06:08:44;;;;;;;5.30;2.07;;;;;;;;;;4998286;28;20277;-79
2021/10/11 06:11:13;;;;;;;6.27;2.10;;;;;;;;;;5000349;28;20181;-79
2021/10/11 06:13:39;;;;;;;9.03;2.73;;;;;;;;;;4998494;28;20240;-78
2021/10/11 06:16:04;;;;;;;9.20;2.27;;;;;;;;;;5005188;28;20444;-79
2021/10/11 06:18:30;;;;;;;5.17;2.00;;;;;;;;;;5000151;28;20227;-79
2021/10/11 06:20:55;;;;;;;8.57;2.40;;;;;;;;;;4996567;28;20968;-78
2021/10/11 06:23:21;;;;;;;12.17;2.13;;;;;;;;;;4998847;28;20504;-78
2021/10/11 06:25:46;;;;;;;8.40;2.47;;;;;;;;;;4999125;28;20173;-78
2021/10/11 06:28:14;;;;;;;3.80;2.03;;;;;;;;;;5000625;28;20243;-78
2021/10/11 06:30:39;;;;;;;8.10;2.20;;;;;;;;;;4999209;28;20204;-79
2021/10/11 06:33:04;;;;;;;7.03;2.13;;;;;;;;;;5000092;28;20873;-79
2021/10/11 06:35:30;;;;;;;10.17;2.27;;;;;;;;;;5001879;28;20212;-79
2021/10/11 06:37:55;;;;;;;9.10;2.40;;;;;;;;;;4998459;28;20169;-80
2021/10/11 06:40:20;;;;;;;6.40;1.97;;;;;;;;;;5007415;28;20220;-79
2021/10/11 06:42:45;;;;;;;6.90;2.30;;;;;;;;;;4999644;28;20205;-79
2021/10/11 06:45:11;;;;;;;6.33;2.30;;;;;;;;;;5000169;28;20240;-79
2021/10/11 06:47:36;;;;;;;9.20;2.30;;;;;;;;;;5001312;28;20236;-78
2021/10/11 06:50:01;;;;;;;6.23;1.73;;;;;;;;;;5003208;28;20627;-79
2021/10/11 06:52:26;;;;;;;9.90;2.60;;;;;;;;;;5004089;28;20232;-78
2021/10/11 06:54:52;;;;;;;7.67;2.10;;;;;;;;;;5003417;28;20192;-78
2021/10/11 06:57:17;;;;;;;5.43;1.60;;;;;;;;;;5003260;28;20193;-78
2021/10/11 06:59:42;;;;;;;9.73;2.73;;;;;;;;;;5004115;28;20181;-78
2021/10/11 07:02:08;;;;;;;7.57;2.03;;;;;;;;;;5003923;28;20284;-78
2021/10/11 07:04:33;;;;;;;9.00;2.17;;;;;;;;;;5002758;28;20197;-78
2021/10/11 07:06:58;;;;;;;7.53;2.27;;;;;;;;;;5001257;28;20182;-78
2021/10/11 07:09:23;;;;;;;12.67;2.60;;;;;;;;;;4996398;28;20185;-76
2021/10/11 07:11:50;;;;;;;8.40;1.97;;;;;;;;;;4999822;28;20244;-77
2021/10/11 07:14:24;;;;;;;14.03;2.73;;;;;;;;;;4997963;28;20213;-76
2021/10/11 07:16:50;;;;;;;10.37;1.83;;;;;;;;;;4999992;28;20436;-76
2021/10/11 07:19:15;;;;;;;8.87;2.10;;;;;;;;;;5001679;28;20446;-77
2021/10/11 07:21:41;;;;;;;7.10;1.97;;;;;;;;;;5002589;28;20174;-77
2021/10/11 07:24:07;;;;;;;6.43;1.83;;;;;;;;;;5001955;28;20552;-77
2021/10/11 07:26:32;;;;;;;5.57;1.33;;;;;;;;;;4999837;28;20425;-77
2021/10/11 07:28:57;;;;;;;7.80;2.03;;;;;;;;;;5001572;28;20228;-78
2021/10/11 07:31:23;;;;;;;5.70;1.60;;;;;;;;;;5000889;28;20216;-78
2021/10/11 07:33:48;;;;;;;9.03;1.93;;;;;;;;;;4999431;28;20266;-77
2021/10/11 07:36:13;;;;;;;9.63;1.60;;;;;;;;;;5003042;28;20196;-78
2021/10/11 07:38:38;;;;;;;14.37;2.20;;;;;;;;;;5001420;28;20894;-77
2021/10/11 07:41:04;;;;;;;11.83;3.00;;;;;;;;;;5000924;28;20181;-77
2021/10/11 07:43:29;;;;;;;8.60;1.93;;;;;;;;;;5001300;28;20235;-78
2021/10/11 07:46:01;;;;;;;4.33;1.43;;;;;;;;;;5004106;28;20177;-77
2021/10/11 07:48:26;;;;;;;5.03;2.00;;;;;;;;;;5003247;28;20213;-77
2021/10/11 07:50:51;;;;;;;7.00;1.70;;;;;;;;;;4999879;28;20464;-78
2021/10/11 07:53:19;;;;;;;6.50;1.90;;;;;;;;;;5001089;28;20221;-78
2021/10/11 07:55:44;;;;;;;7.00;1.50;;;;;;;;;;4998711;28;20174;-77
2021/10/11 07:58:09;;;;;;;4.60;1.80;;;;;;;;;;5002413;28;20447;-77
2021/10/11 08:00:34;;;;;;;8.03;1.53;;;;;;;;;;4998573;28;20177;-78
2021/10/11 08:03:00;;;;;;;6.40;1.50;;;;;;;;;;5000390;28;20229;-77
2021/10/11 08:05:25;;;;;;;5.07;1.60;;;;;;;;;;4998110;28;20209;-77
2021/10/11 08:07:50;;;;;;;8.33;2.57;;;;;;;;;;5005250;28;20673;-76
2021/10/11 08:10:15;;;;;;;3.07;1.23;;;;;;;;;;4998498;28;20556;-76
2021/10/11 08:12:41;;;;;;;6.77;1.87;;;;;;;;;;4997624;28;20200;-77
2021/10/11 08:15:07;;;;;;;10.60;1.97;;;;;;;;;;4998333;28;20663;-76
2021/10/11 08:17:33;;;;;;;6.33;1.70;;;;;;;;;;5000458;28;20553;-76
2021/10/11 08:19:58;;;;;;;7.37;1.30;;;;;;;;;;4996655;28;20441;-77
2021/10/11 08:22:23;;;;;;;6.40;2.10;;;;;;;;;;4996926;28;25809;-76
2021/10/11 08:24:50;;;;;;;8.60;2.30;;;;;;;;;;4996987;28;21340;-76
2021/10/11 08:27:18;;;;;;;7.00;1.57;;;;;;;;;;4994111;28;20185;-76
2021/10/11 08:29:53;;;;;;;7.50;2.17;;;;;;;;;;4995299;28;21497;-76
2021/10/11 08:32:22;;;;;;;11.00;1.97;;;;;;;;;;4997248;28;20840;-77
2021/10/11 08:34:48;;;;;;;5.70;1.60;;;;;;;;;;5001256;28;20531;-77
2021/10/11 08:37:13;;;;;;;4.40;1.83;;;;;;;;;;5013330;28;21012;-77
2021/10/11 08:39:38;;;;;;;2.60;1.10;;;;;;;;;;5001973;28;20187;-77
2021/10/11 08:42:04;;;;;;;5.47;1.50;;;;;;;;;;4997928;28;20182;-76
2021/10/11 08:44:30;;;;;;;4.00;1.47;;;;;;;;;;4997996;28;20620;-76
2021/10/11 08:46:55;;;;;;;3.73;1.10;;;;;;;;;;4996148;28;20445;-77
2021/10/11 08:49:20;;;;;;;6.27;1.07;;;;;;;;;;4998252;28;20192;-76
2021/10/11 08:51:45;;;;;;;6.53;1.47;;;;;;;;;;4998212;28;20272;-76
2021/10/11 08:54:11;;;;;;;6.20;2.20;;;;;;;;;;4999532;28;20236;-76
2021/10/11 08:56:36;;;;;;;3.40;0.90;;;;;;;;;;4997573;28;20213;-77
2021/10/11 08:59:01;;;;;;;5.30;1.10;;;;;;;;;;4999038;28;20611;-75
2021/10/11 09:01:26;;;;;;;2.83;1.20;;;;;;;;;;4996593;28;20191;-76
2021/10/11 09:03:52;;;;;;;8.87;1.37;;;;;;;;;;4997595;28;20262;-76
2021/10/11 09:06:18;;;;;;;3.60;1.37;;;;;;;;;;4998929;28;20184;-76
2021/10/11 09:08:43;;;;;;;5.33;1.40;;;;;;;;;;4997558;28;20281;-76
2021/10/11 09:11:09;;;;;;;5.53;1.40;;;;;;;;;;4998699;28;20181;-75
2021/10/11 09:13:43;;;;;;;7.10;1.70;;;;;;;;;;4996780;28;20710;-76
2021/10/11 09:16:10;;;;;;;6.83;1.47;;;;;;;;;;4998392;28;20428;-75
2021/10/11 09:18:38;;;;;;;4.27;1.40;;;;;;;;;;4998384;28;20959;-75
2021/10/11 09:21:03;;;;;;;7.63;1.60;;;;;;;;;;4998262;28;20432;-75
2021/10/11 09:23:31;;;;;;;7.50;1.63;;;;;;;;;;4996490;28;20502;-76
2021/10/11 09:26:00;;;;;;;5.43;1.30;;;;;;;;;;4996461;28;20185;-75
2021/10/11 09:28:26;;;;;;;5.53;1.30;;;;;;;;;;4997649;28;20445;-76
2021/10/11 09:30:52;;;;;;;5.87;1.60;;;;;;;;;;5000069;28;20496;-76
2021/10/11 09:33:18;;;;;;;9.17;2.40;;;;;;;;;;4999696;28;20975;-75
2021/10/11 09:35:45;;;;;;;7.73;1.60;;;;;;;;;;5001256;28;20181;-76
2021/10/11 09:38:27;;;;;;;3.40;1.17;;;;;;;;;;4998790;28;20531;-76
2021/10/11 09:40:57;;;;;;;5.47;1.37;;;;;;;;;;4993481;28;20439;-75
2021/10/11 09:43:24;;;;;;;8.20;1.80;;;;;;;;;;4999365;28;20456;-75
2021/10/11 09:45:50;;;;;;;3.60;1.40;;;;;;;;;;4998243;28;20474;-77
2021/10/11 09:48:16;;;;;;;6.27;1.53;;;;;;;;;;4998382;28;20432;-74
2021/10/11 09:50:41;;;;;;;4.27;1.27;;;;;;;;;;4999485;28;20514;-76
2021/10/11 09:53:08;;;;;;;14.23;1.60;;;;;;;;;;4996533;28;20474;-75
2021/10/11 09:55:34;;;;;;;3.43;1.37;;;;;;;;;;4997503;28;20299;-75
2021/10/11 09:58:00;;;;;;;6.73;1.50;;;;;;;;;;4999492;28;21832;-75
2021/10/11 10:00:25;;;;;;;8.13;1.60;;;;;;;;;;4996483;28;20185;-75
2021/10/11 10:02:52;;;;;;;11.90;2.20;;;;;;;;;;4998427;28;20495;-75
2021/10/11 10:05:23;;;;;;;4.80;1.47;;;;;;;;;;4995039;28;20323;-74
2021/10/11 10:07:50;;;;;;;7.67;1.87;;;;;;;;;;4998136;28;20451;-75
2021/10/11 10:10:18;;;;;;;3.47;1.40;;;;;;;;;;4997445;28;20527;-75
2021/10/11 10:12:44;;;;;;;5.00;1.77;;;;;;;;;;4996661;28;20483;-75
2021/10/11 10:15:10;;;;;;;5.13;1.60;;;;;;;;;;4996615;28;20512;-75
2021/10/11 10:17:35;;;;;;;4.90;1.67;;;;;;;;;;4995359;28;20535;-75
2021/10/11 10:20:05;;;;;;;4.97;1.50;;;;;;;;;;4995896;28;20174;-75
2021/10/11 10:22:30;;;;;;;9.33;1.40;;;;;;;;;;4997307;28;20221;-74
2021/10/11 10:25:08;;;;;;;4.73;1.20;;;;;;;;;;4995723;28;20440;-74
2021/10/11 10:27:36;;;;;;;9.23;1.63;;;;;;;;;;4996780;28;20673;-75
2021/10/11 10:30:12;;;;;;;1.60;0.80;;;;;;;;;;4997056;28;20439;-75
2021/10/11 10:32:37;;;;;;;4.87;1.50;;;;;;;;;;4992242;28;20570;-75
2021/10/11 10:35:04;;;;;;;4.50;1.50;;;;;;;;;;4997370;28;20543;-75
2021/10/11 10:37:36;;;;;;;3.73;1.30;;;;;;;;;;4996458;28;20468;-75
2021/10/11 10:40:12;;;;;;;3.80;1.17;;;;;;;;;;4989438;28;20188;-75
2021/10/11 10:42:38;;;;;;;4.27;1.30;;;;;;;;;;4993011;28;20598;-75
2021/10/11 10:45:13;;;;;;;4.40;1.03;;;;;;;;;;4994422;28;21149;-74
2021/10/11 10:47:40;;;;;;;2.53;1.20;;;;;;;;;;4994178;28;20239;-75
2021/10/11 10:50:14;;;;;;;2.47;0.93;;;;;;;;;;4994745;28;20436;-75
2021/10/11 10:52:39;;;;;;;5.70;1.07;;;;;;;;;;4995056;28;20476;-75
2021/10/11 10:55:05;;;;;;;8.27;1.37;;;;;;;;;;4999664;28;20682;-75
2021/10/11 10:57:31;;;;;;;3.93;1.17;;;;;;;;;;4998977;28;20193;-75
2021/10/11 11:00:00;;;;;;;4.20;1.33;;;;;;;;;;4995604;28;20178;-75
2021/10/11 11:02:27;;;;;;;2.93;1.13;;;;;;;;;;4996480;28;21333;-75
2021/10/11 11:04:53;;;;;;;6.33;1.30;;;;;;;;;;4995283;28;20462;-75
2021/10/11 11:07:24;;;;;;;4.87;1.30;;;;;;;;;;4997295;28;20824;-75
2021/10/11 11:09:49;;;;;;;2.93;1.17;;;;;;;;;;4996955;28;20921;-75
2021/10/11 11:12:14;;;;;;;4.20;1.10;;;;;;;;;;4996709;28;20476;-74
2021/10/11 11:14:43;;;;;;;6.00;1.50;;;;;;;;;;4993913;28;20212;-75
2021/10/11 11:17:14;;;;;;;11.93;1.10;;;;;;;;;;4995116;28;20188;-75
2021/10/11 11:19:40;;;;;;;2.10;1.00;;;;;;;;;;4996186;28;20905;-74
2021/10/11 11:22:05;;;;;;;3.03;1.20;;;;;;;;;;4995508;28;20432;-74
2021/10/11 11:24:31;;;;;;;3.10;1.00;;;;;;;;;;4993997;28;20502;-75
2021/10/11 11:26:59;;;;;;;2.30;1.10;;;;;;;;;;4996948;28;20204;-75
2021/10/11 11:29:25;;;;;;;3.27;1.27;;;;;;;;;;4998868;28;20823;-75
2021/10/11 11:31:51;;;;;;;4.87;1.13;;;;;;;;;;4993972;28;20440;-75
2021/10/11 11:34:16;;;;;;;4.83;1.80;;;;;;;;;;4995332;28;20201;-74
2021/10/11 11:36:55;;;;;;;3.63;1.47;;;;;;;;;;4997446;28;20897;-75
2021/10/11 11:39:21;;;;;;;3.77;1.50;;;;;;;;;;5001094;28;20181;-75
2021/10/11 11:41:50;;;;;;;10.67;2.00;;;;;;;;;;5001356;28;20482;-75
2021/10/11 11:44:21;;;;;;;10.80;2.30;;;;;;;;;;5000692;28;20293;-74
2021/10/11 11:46:47;;;;;;;3.43;1.23;;;;;;;;;;4999307;28;20445;-74
2021/10/11 11:49:23;;;;;;;7.10;1.50;;;;;;;;;;5000209;28;20498;-74
2021/10/11 11:51:48;;;;;;;5.33;1.27;;;;;;;;;;4996093;28;20185;-74
2021/10/11 11:54:16;;;;;;;5.93;1.33;;;;;;;;;;4999939;28;20452;-75
2021/10/11 11:56:42;;;;;;;2.03;0.90;;;;;;;;;;4999626;28;20181;-75
2021/10/11 11:59:07;;;;;;;4.43;0.90;;;;;;;;;;4998578;28;20503;-74
2021/10/11 12:01:32;;;;;;;3.07;0.90;;;;;;;;;;4999864;28;20174;-75
2021/10/11 12:04:02;;;;;;;2.60;1.17;;;;;;;;;;5005931;23;20225;-75
2021/10/11 12:06:31;;;;;;;4.10;0.90;;;;;;;;;;5004404;28;20177;-76
2021/10/11 12:08:57;;;;;;;2.90;1.20;;;;;;;;;;5005250;28;20447;-75
2021/10/11 12:11:22;;;;;;;3.27;1.00;;;;;;;;;;5019609;28;20469;-75
2021/10/11 12:13:48;;;;;;;6.03;0.90;;;;;;;;;;5004003;28;21012;-76
2021/10/11 12:16:15;;;;;;;3.37;0.97;;;;;;;;;;5006769;28;20250;-75
2021/10/11 12:18:41;;;;;;;7.20;1.27;;;;;;;;;;5002268;28;20189;-75
2021/10/11 12:21:06;;;;;;;4.40;0.90;;;;;;;;;;5002509;28;20963;-75
2021/10/11 12:23:35;;;;;;;1.90;1.00;;;;;;;;;;5001104;28;20460;-75
2021/10/11 12:26:02;;;;;;;4.67;1.17;;;;;;;;;;5002125;28;20185;-75
2021/10/11 12:28:27;;;;;;;3.20;1.17;;;;;;;;;;5001466;28;20759;-75
2021/10/11 12:31:00;;;;;;;4.03;1.17;;;;;;;;;;5001982;28;20423;-75
2021/10/11 12:33:33;;;;;;;1.87;0.87;;;;;;;;;;5002142;28;20682;-75
2021/10/11 12:36:00;;;;;;;4.63;1.20;;;;;;;;;;5002581;28;20429;-75
2021/10/11 12:38:32;;;;;;;5.80;1.30;;;;;;;;;;5003256;28;20928;-74
2021/10/11 12:41:06;;;;;;;2.73;1.03;;;;;;;;;;5002119;28;20502;-75
2021/10/11 12:43:31;;;;;;;4.47;1.20;;;;;;;;;;5001791;28;20507;-75
2021/10/11 12:46:02;;;;;;;3.93;1.00;;;;;;;;;;4997832;28;20445;-75
2021/10/11 12:48:27;;;;;;;9.03;1.20;;;;;;;;;;4999364;28;20268;-74
2021/10/11 12:50:53;;;;;;;7.60;1.80;;;;;;;;;;5002877;28;20522;-76
2021/10/11 12:53:24;;;;;;;2.93;1.00;;;;;;;;;;5002764;28;20296;-75
2021/10/11 12:55:50;;;;;;;3.27;1.30;;;;;;;;;;5004011;28;20639;-76
2021/10/11 12:58:15;;;;;;;3.93;1.47;;;;;;;;;;5001011;28;20523;-76
2021/10/11 13:00:40;;;;;;;3.53;0.90;;;;;;;;;;5000653;28;20659;-76
2021/10/11 13:03:07;;;;;;;2.70;1.37;;;;;;;;;;5001487;28;20213;-76
2021/10/11 13:05:33;;;;;;;2.60;0.90;;;;;;;;;;5004124;28;20189;-76
2021/10/11 13:07:58;;;;;;;2.80;1.20;;;;;;;;;;5002079;28;20435;-76
2021/10/11 13:10:23;;;;;;;2.03;1.03;;;;;;;;;;5003252;28;20173;-76
2021/10/11 13:12:48;;;;;;;3.63;1.20;;;;;;;;;;5000437;28;25759;-75
2021/10/11 13:15:14;;;;;;;8.60;1.20;;;;;;;;;;5000952;28;20181;-76
2021/10/11 13:17:39;;;;;;;4.33;1.17;;;;;;;;;;5001619;28;20212;-75
2021/10/11 13:20:05;;;;;;;5.73;1.30;;;;;;;;;;5003173;28;20224;-76
2021/10/11 13:22:30;;;;;;;4.50;1.50;;;;;;;;;;5002702;28;20204;-75
2021/10/11 13:24:57;;;;;;;3.43;0.93;;;;;;;;;;5004102;28;20166;-75
2021/10/11 13:27:23;;;;;;;3.40;1.13;;;;;;;;;;5001379;28;20185;-76
2021/10/11 13:35:43;;;;;;;2.07;1.00;;;;;;;;;;5004811;28;21347;-76
2021/10/11 14:26:28;;;;;;;11.23;1.77;;;;;;;;;;5002178;28;20420;-75
2021/10/11 14:29:01;;;;;;;7.27;1.80;;;;;;;;;;5004769;28;20392;-75
2021/10/11 15:58:47;;;;;;;14.10;2.57;;;;;;;;;;5004096;28;20485;-75
2021/10/11 16:01:22;;;;;;;7.00;2.40;;;;;;;;;;5005056;28;20483;-76
2021/10/11 16:06:13;;;;;;;7.70;1.97;;;;;;;;;;5003989;28;20554;-75
2021/10/11 16:08:38;;;;;;;9.83;1.73;;;;;;;;;;5004007;28;20185;-75
2021/10/11 16:11:03;;;;;;;8.27;2.00;;;;;;;;;;5008435;28;20182;-75
2021/10/11 16:13:28;;;;;;;5.53;1.63;;;;;;;;;;5007691;28;20682;-75
2021/10/11 16:15:54;;;;;;;6.20;1.70;;;;;;;;;;5006270;28;20170;-76
2021/10/11 16:18:19;;;;;;;5.27;1.67;;;;;;;;;;5007349;28;20177;-75
2021/10/11 16:20:45;;;;;;;3.87;1.90;;;;;;;;;;5005000;28;20192;-75
2021/10/11 16:23:13;;;;;;;10.40;1.73;;;;;;;;;;5006373;28;20843;-75
2021/10/11 16:25:38;;;;;;;4.80;1.63;;;;;;;;;;5005779;28;20269;-75
2021/10/11 16:28:06;;;;;;;8.17;1.87;;;;;;;;;;5003860;28;20562;-76
2021/10/11 16:30:31;;;;;;;9.53;2.20;;;;;;;;;;5006348;28;20196;-75
2021/10/11 16:32:57;;;;;;;3.83;1.40;;;;;;;;;;5004071;28;20566;-75
2021/10/11 16:35:22;;;;;;;5.40;1.53;;;;;;;;;;5002786;28;20181;-75
2021/10/11 16:37:48;;;;;;;3.67;1.50;;;;;;;;;;5004346;28;20181;-75
2021/10/11 16:40:14;;;;;;;8.40;1.43;;;;;;;;;;5004491;28;20209;-75
2021/10/11 16:42:39;;;;;;;6.17;1.67;;;;;;;;;;5003581;28;20205;-76
2021/10/11 16:45:07;;;;;;;8.00;1.90;;;;;;;;;;5004803;28;20433;-76
2021/10/11 16:47:32;;;;;;;5.90;1.57;;;;;;;;;;4997676;28;20272;-76
2021/10/11 16:49:57;;;;;;;7.90;1.53;;;;;;;;;;5000128;28;20975;-75
2021/10/11 16:52:24;;;;;;;7.73;1.60;;;;;;;;;;4999164;28;20674;-76
2021/10/11 16:54:49;;;;;;;8.03;1.70;;;;;;;;;;4999610;28;20260;-75
2021/10/11 16:57:14;;;;;;;5.37;1.20;;;;;;;;;;5003820;28;20530;-75
2021/10/11 16:59:42;;;;;;;5.40;1.77;;;;;;;;;;5003955;28;20638;-76